sensor_id;sensor_type;location;lat;lon;timestamp;temperature;humidity
37086;DHT22;23001;45.952;12.676;2023-07-29T00:01:51;23.20;99.90
37086;DHT22;23001;45.952;12.676;2023-07-29T00:04:17;23.20;99.90
37086;DHT22;23001;45.952;12.676;2023-07-29T00:06:43;23.20;99.90
37086;DHT22;23001;45.952;12.676;2023-07-29T00:09:08;23.20;99.90
37086;DHT22;23001;45.952;12.676;2023-07-29T00:11:34;23.20;99.90
37086;DHT22;23001;45.952;12.676;2023-07-29T00:14:01;23.20;99.90
37086;DHT22;23001;45.952;12.676;2023-07-29T00:16:26;23.20;99.90
37086;DHT22;23001;45.952;12.676;2023-07-29T00:18:52;23.20;99.90
37086;DHT22;23001;45.952;12.676;2023-07-29T00:21:18;23.20;99.90
37086;DHT22;23001;45.952;12.676;2023-07-29T00:23:44;23.10;99.90
37086;DHT22;23001;45.952;12.676;2023-07-29T00:26:10;23.20;99.90
37086;DHT22;23001;45.952;12.676;2023-07-29T00:28:36;23.10;99.90
37086;DHT22;23001;45.952;12.676;2023-07-29T00:31:02;23.10;99.90
37086;DHT22;23001;45.952;12.676;2023-07-29T00:33:28;23.00;99.90
37086;DHT22;23001;45.952;12.676;2023-07-29T00:35:53;23.00;99.90
37086;DHT22;23001;45.952;12.676;2023-07-29T00:38:20;23.00;99.90
37086;DHT22;23001;45.952;12.676;2023-07-29T00:40:45;22.90;99.90
37086;DHT22;23001;45.952;12.676;2023-07-29T00:43:11;23.00;99.90
37086;DHT22;23001;45.952;12.676;2023-07-29T00:45:38;22.90;99.90
37086;DHT22;23001;45.952;12.676;2023-07-29T00:48:04;22.90;99.90
37086;DHT22;23001;45.952;12.676;2023-07-29T00:50:32;22.90;99.90
37086;DHT22;23001;45.952;12.676;2023-07-29T00:52:58;22.90;99.90
37086;DHT22;23001;45.952;12.676;2023-07-29T00:55:24;22.90;99.90
37086;DHT22;23001;45.952;12.676;2023-07-29T00:57:51;22.90;99.90
37086;DHT22;23001;45.952;12.676;2023-07-29T01:00:20;22.90;99.90
37086;DHT22;23001;45.952;12.676;2023-07-29T01:02:46;22.80;99.90
37086;DHT22;23001;45.952;12.676;2023-07-29T01:05:16;22.80;99.90
37086;DHT22;23001;45.952;12.676;2023-07-29T01:08:17;22.70;99.90
37086;DHT22;23001;45.952;12.676;2023-07-29T01:11:05;22.60;99.90
37086;DHT22;23001;45.952;12.676;2023-07-29T01:13:48;22.60;99.90
37086;DHT22;23001;45.952;12.676;2023-07-29T01:16:22;22.60;99.90
37086;DHT22;23001;45.952;12.676;2023-07-29T01:18:51;22.60;99.90
37086;DHT22;23001;45.952;12.676;2023-07-29T01:21:19;22.50;99.90
37086;DHT22;23001;45.952;12.676;2023-07-29T01:23:46;22.50;99.90
37086;DHT22;23001;45.952;12.676;2023-07-29T01:26:12;22.50;99.90
37086;DHT22;23001;45.952;12.676;2023-07-29T01:28:38;22.50;99.90
37086;DHT22;23001;45.952;12.676;2023-07-29T01:31:13;22.40;99.90
37086;DHT22;23001;45.952;12.676;2023-07-29T01:33:48;22.40;99.90
37086;DHT22;23001;45.952;12.676;2023-07-29T01:36:21;22.50;99.90
37086;DHT22;23001;45.952;12.676;2023-07-29T01:38:49;22.50;99.90
37086;DHT22;23001;45.952;12.676;2023-07-29T01:41:17;22.50;99.90
37086;DHT22;23001;45.952;12.676;2023-07-29T01:43:45;22.40;99.90
37086;DHT22;23001;45.952;12.676;2023-07-29T01:46:12;22.40;99.90
37086;DHT22;23001;45.952;12.676;2023-07-29T01:48:39;22.30;99.90
37086;DHT22;23001;45.952;12.676;2023-07-29T01:51:05;22.30;99.90
37086;DHT22;23001;45.952;12.676;2023-07-29T01:53:31;22.30;99.90
37086;DHT22;23001;45.952;12.676;2023-07-29T01:55:58;22.40;99.90
37086;DHT22;23001;45.952;12.676;2023-07-29T01:58:24;22.40;99.90
37086;DHT22;23001;45.952;12.676;2023-07-29T02:00:50;22.40;99.90
37086;DHT22;23001;45.952;12.676;2023-07-29T02:03:15;22.40;99.90
37086;DHT22;23001;45.952;12.676;2023-07-29T02:05:41;22.40;99.90
37086;DHT22;23001;45.952;12.676;2023-07-29T02:08:10;22.40;99.90
37086;DHT22;23001;45.952;12.676;2023-07-29T02:10:36;22.30;99.90
37086;DHT22;23001;45.952;12.676;2023-07-29T02:13:03;22.20;99.90
37086;DHT22;23001;45.952;12.676;2023-07-29T02:15:29;22.20;99.90
37086;DHT22;23001;45.952;12.676;2023-07-29T02:17:54;22.20;99.90
37086;DHT22;23001;45.952;12.676;2023-07-29T02:20:20;22.20;99.90
37086;DHT22;23001;45.952;12.676;2023-07-29T02:22:46;22.30;99.90
37086;DHT22;23001;45.952;12.676;2023-07-29T02:25:14;22.30;99.90
37086;DHT22;23001;45.952;12.676;2023-07-29T02:27:40;22.30;99.90
37086;DHT22;23001;45.952;12.676;2023-07-29T02:30:06;22.30;99.90
37086;DHT22;23001;45.952;12.676;2023-07-29T02:32:32;22.20;99.90
37086;DHT22;23001;45.952;12.676;2023-07-29T02:34:58;22.20;99.90
37086;DHT22;23001;45.952;12.676;2023-07-29T02:37:24;22.20;99.90
37086;DHT22;23001;45.952;12.676;2023-07-29T02:39:50;22.20;99.90
37086;DHT22;23001;45.952;12.676;2023-07-29T02:42:16;22.20;99.90
37086;DHT22;23001;45.952;12.676;2023-07-29T02:44:42;22.20;99.90
37086;DHT22;23001;45.952;12.676;2023-07-29T02:47:08;22.20;99.90
37086;DHT22;23001;45.952;12.676;2023-07-29T02:49:33;22.20;99.90
37086;DHT22;23001;45.952;12.676;2023-07-29T02:51:59;22.20;99.90
37086;DHT22;23001;45.952;12.676;2023-07-29T02:54:25;22.20;99.90
37086;DHT22;23001;45.952;12.676;2023-07-29T02:56:51;22.20;99.90
37086;DHT22;23001;45.952;12.676;2023-07-29T02:59:17;22.20;99.90
37086;DHT22;23001;45.952;12.676;2023-07-29T03:01:43;22.20;99.90
37086;DHT22;23001;45.952;12.676;2023-07-29T03:04:08;22.10;99.90
37086;DHT22;23001;45.952;12.676;2023-07-29T03:06:34;22.10;99.90
37086;DHT22;23001;45.952;12.676;2023-07-29T03:09:00;22.10;99.90
37086;DHT22;23001;45.952;12.676;2023-07-29T03:11:25;22.10;99.90
37086;DHT22;23001;45.952;12.676;2023-07-29T03:13:51;22.10;99.90
37086;DHT22;23001;45.952;12.676;2023-07-29T03:16:17;22.10;99.90
37086;DHT22;23001;45.952;12.676;2023-07-29T03:18:44;22.10;99.90
37086;DHT22;23001;45.952;12.676;2023-07-29T03:21:15;21.90;99.90
37086;DHT22;23001;45.952;12.676;2023-07-29T03:23:41;22.00;99.90
37086;DHT22;23001;45.952;12.676;2023-07-29T03:26:10;21.90;99.90
37086;DHT22;23001;45.952;12.676;2023-07-29T03:28:38;21.90;99.90
37086;DHT22;23001;45.952;12.676;2023-07-29T03:31:04;21.90;99.90
37086;DHT22;23001;45.952;12.676;2023-07-29T03:33:30;21.90;99.90
37086;DHT22;23001;45.952;12.676;2023-07-29T03:35:56;21.80;99.90
37086;DHT22;23001;45.952;12.676;2023-07-29T03:38:22;21.80;99.90
37086;DHT22;23001;45.952;12.676;2023-07-29T03:40:48;21.80;99.90
37086;DHT22;23001;45.952;12.676;2023-07-29T03:43:14;21.80;99.90
37086;DHT22;23001;45.952;12.676;2023-07-29T03:45:40;21.70;99.90
37086;DHT22;23001;45.952;12.676;2023-07-29T03:48:09;21.70;99.90
37086;DHT22;23001;45.952;12.676;2023-07-29T03:50:35;21.60;99.90
37086;DHT22;23001;45.952;12.676;2023-07-29T03:53:04;21.60;99.90
37086;DHT22;23001;45.952;12.676;2023-07-29T03:55:31;21.60;99.90
37086;DHT22;23001;45.952;12.676;2023-07-29T03:57:57;21.60;99.90
37086;DHT22;23001;45.952;12.676;2023-07-29T04:00:23;21.50;99.90
37086;DHT22;23001;45.952;12.676;2023-07-29T04:02:49;21.50;99.90
37086;DHT22;23001;45.952;12.676;2023-07-29T04:05:16;21.50;99.90
37086;DHT22;23001;45.952;12.676;2023-07-29T04:07:42;21.50;99.90
37086;DHT22;23001;45.952;12.676;2023-07-29T04:10:08;21.50;99.90
37086;DHT22;23001;45.952;12.676;2023-07-29T04:12:34;21.50;99.90
37086;DHT22;23001;45.952;12.676;2023-07-29T04:15:00;21.50;99.90
37086;DHT22;23001;45.952;12.676;2023-07-29T04:17:26;21.50;99.90
37086;DHT22;23001;45.952;12.676;2023-07-29T04:19:52;21.50;99.90
37086;DHT22;23001;45.952;12.676;2023-07-29T04:22:18;21.50;99.90
37086;DHT22;23001;45.952;12.676;2023-07-29T04:24:43;21.50;99.90
37086;DHT22;23001;45.952;12.676;2023-07-29T04:27:09;21.50;99.90
37086;DHT22;23001;45.952;12.676;2023-07-29T04:29:36;21.50;99.90
37086;DHT22;23001;45.952;12.676;2023-07-29T04:32:05;21.50;99.90
37086;DHT22;23001;45.952;12.676;2023-07-29T04:34:31;21.40;99.90
37086;DHT22;23001;45.952;12.676;2023-07-29T04:36:57;21.60;99.90
37086;DHT22;23001;45.952;12.676;2023-07-29T04:39:22;21.50;99.90
37086;DHT22;23001;45.952;12.676;2023-07-29T04:41:48;21.50;99.90
37086;DHT22;23001;45.952;12.676;2023-07-29T04:44:14;21.60;99.90
37086;DHT22;23001;45.952;12.676;2023-07-29T04:46:40;21.60;99.90
37086;DHT22;23001;45.952;12.676;2023-07-29T04:49:05;21.70;99.90
37086;DHT22;23001;45.952;12.676;2023-07-29T04:51:31;21.70;99.90
37086;DHT22;23001;45.952;12.676;2023-07-29T04:53:58;21.80;99.90
37086;DHT22;23001;45.952;12.676;2023-07-29T04:56:24;21.80;99.90
37086;DHT22;23001;45.952;12.676;2023-07-29T04:58:50;21.80;99.90
37086;DHT22;23001;45.952;12.676;2023-07-29T05:01:16;21.90;99.90
37086;DHT22;23001;45.952;12.676;2023-07-29T05:03:41;21.80;99.90
37086;DHT22;23001;45.952;12.676;2023-07-29T05:06:07;21.80;99.90
37086;DHT22;23001;45.952;12.676;2023-07-29T05:08:33;21.80;99.90
37086;DHT22;23001;45.952;12.676;2023-07-29T05:10:59;21.90;99.90
37086;DHT22;23001;45.952;12.676;2023-07-29T05:13:25;22.00;99.90
37086;DHT22;23001;45.952;12.676;2023-07-29T05:15:51;22.00;99.90
37086;DHT22;23001;45.952;12.676;2023-07-29T05:18:20;22.00;99.90
37086;DHT22;23001;45.952;12.676;2023-07-29T05:20:47;22.10;99.90
37086;DHT22;23001;45.952;12.676;2023-07-29T05:23:13;22.10;99.90
37086;DHT22;23001;45.952;12.676;2023-07-29T05:25:39;22.20;99.90
37086;DHT22;23001;45.952;12.676;2023-07-29T05:28:04;22.20;99.90
37086;DHT22;23001;45.952;12.676;2023-07-29T05:30:31;22.20;99.90
37086;DHT22;23001;45.952;12.676;2023-07-29T05:32:59;22.30;99.90
37086;DHT22;23001;45.952;12.676;2023-07-29T05:35:25;22.40;99.90
37086;DHT22;23001;45.952;12.676;2023-07-29T05:37:51;22.50;99.90
37086;DHT22;23001;45.952;12.676;2023-07-29T05:40:16;22.50;99.90
37086;DHT22;23001;45.952;12.676;2023-07-29T05:42:42;22.40;99.90
37086;DHT22;23001;45.952;12.676;2023-07-29T05:45:09;22.40;99.90
37086;DHT22;23001;45.952;12.676;2023-07-29T05:47:36;22.80;99.90
37086;DHT22;23001;45.952;12.676;2023-07-29T05:50:05;22.90;99.90
37086;DHT22;23001;45.952;12.676;2023-07-29T05:52:34;22.90;99.90
37086;DHT22;23001;45.952;12.676;2023-07-29T05:55:00;23.10;99.90
37086;DHT22;23001;45.952;12.676;2023-07-29T05:57:26;23.20;99.90
37086;DHT22;23001;45.952;12.676;2023-07-29T05:59:55;23.40;99.90
37086;DHT22;23001;45.952;12.676;2023-07-29T06:02:20;23.60;99.90
37086;DHT22;23001;45.952;12.676;2023-07-29T06:04:46;23.80;99.90
37086;DHT22;23001;45.952;12.676;2023-07-29T06:07:12;23.80;99.90
37086;DHT22;23001;45.952;12.676;2023-07-29T06:09:38;23.80;99.90
37086;DHT22;23001;45.952;12.676;2023-07-29T06:12:04;23.50;99.90
37086;DHT22;23001;45.952;12.676;2023-07-29T06:14:30;23.30;99.90
37086;DHT22;23001;45.952;12.676;2023-07-29T06:16:56;24.20;99.90
37086;DHT22;23001;45.952;12.676;2023-07-29T06:19:22;25.00;99.90
37086;DHT22;23001;45.952;12.676;2023-07-29T06:21:48;25.60;99.90
37086;DHT22;23001;45.952;12.676;2023-07-29T06:24:14;26.00;99.90
37086;DHT22;23001;45.952;12.676;2023-07-29T06:26:39;26.10;99.90
37086;DHT22;23001;45.952;12.676;2023-07-29T06:29:05;26.30;99.90
37086;DHT22;23001;45.952;12.676;2023-07-29T06:31:31;26.30;99.90
37086;DHT22;23001;45.952;12.676;2023-07-29T06:33:58;26.20;99.90
37086;DHT22;23001;45.952;12.676;2023-07-29T06:36:24;25.90;99.90
37086;DHT22;23001;45.952;12.676;2023-07-29T06:38:50;25.90;99.90
37086;DHT22;23001;45.952;12.676;2023-07-29T06:41:15;26.10;99.90
37086;DHT22;23001;45.952;12.676;2023-07-29T06:43:42;26.20;99.90
37086;DHT22;23001;45.952;12.676;2023-07-29T06:46:07;26.60;99.90
37086;DHT22;23001;45.952;12.676;2023-07-29T06:48:36;26.90;99.90
37086;DHT22;23001;45.952;12.676;2023-07-29T06:51:02;27.00;99.90
37086;DHT22;23001;45.952;12.676;2023-07-29T06:53:29;26.60;99.90
37086;DHT22;23001;45.952;12.676;2023-07-29T06:55:55;26.80;99.90
37086;DHT22;23001;45.952;12.676;2023-07-29T06:58:21;26.80;99.90
37086;DHT22;23001;45.952;12.676;2023-07-29T07:00:47;26.80;99.90
37086;DHT22;23001;45.952;12.676;2023-07-29T07:03:12;27.20;99.90
37086;DHT22;23001;45.952;12.676;2023-07-29T07:05:38;27.00;99.90
37086;DHT22;23001;45.952;12.676;2023-07-29T07:08:04;27.10;99.90
37086;DHT22;23001;45.952;12.676;2023-07-29T07:10:32;27.20;99.90
37086;DHT22;23001;45.952;12.676;2023-07-29T07:12:59;27.10;99.90
37086;DHT22;23001;45.952;12.676;2023-07-29T07:15:25;26.90;99.90
37086;DHT22;23001;45.952;12.676;2023-07-29T07:17:51;27.20;99.90
37086;DHT22;23001;45.952;12.676;2023-07-29T07:20:23;27.30;99.90
37086;DHT22;23001;45.952;12.676;2023-07-29T07:22:53;27.30;99.90
37086;DHT22;23001;45.952;12.676;2023-07-29T07:25:19;27.30;99.90
37086;DHT22;23001;45.952;12.676;2023-07-29T07:27:45;27.20;99.90
37086;DHT22;23001;45.952;12.676;2023-07-29T07:32:58;27.60;99.90
37086;DHT22;23001;45.952;12.676;2023-07-29T07:35:24;27.90;99.90
37086;DHT22;23001;45.952;12.676;2023-07-29T07:37:50;28.10;99.90
37086;DHT22;23001;45.952;12.676;2023-07-29T07:40:16;28.10;99.90
37086;DHT22;23001;45.952;12.676;2023-07-29T07:42:41;27.90;99.90
37086;DHT22;23001;45.952;12.676;2023-07-29T07:45:08;28.00;99.90
37086;DHT22;23001;45.952;12.676;2023-07-29T07:47:34;28.20;99.90
37086;DHT22;23001;45.952;12.676;2023-07-29T07:53:06;28.40;99.90
37086;DHT22;23001;45.952;12.676;2023-07-29T07:55:32;28.10;99.90
37086;DHT22;23001;45.952;12.676;2023-07-29T07:57:58;28.20;99.90
37086;DHT22;23001;45.952;12.676;2023-07-29T08:00:35;28.20;99.90
37086;DHT22;23001;45.952;12.676;2023-07-29T08:03:29;28.00;99.90
37086;DHT22;23001;45.952;12.676;2023-07-29T08:05:55;28.30;99.90
37086;DHT22;23001;45.952;12.676;2023-07-29T08:08:20;28.50;99.90
37086;DHT22;23001;45.952;12.676;2023-07-29T08:10:46;28.40;99.90
37086;DHT22;23001;45.952;12.676;2023-07-29T08:13:14;28.00;99.90
37086;DHT22;23001;45.952;12.676;2023-07-29T08:15:40;28.00;99.90
37086;DHT22;23001;45.952;12.676;2023-07-29T08:18:06;28.00;99.90
37086;DHT22;23001;45.952;12.676;2023-07-29T08:20:32;27.70;99.90
37086;DHT22;23001;45.952;12.676;2023-07-29T08:22:58;28.10;99.90
37086;DHT22;23001;45.952;12.676;2023-07-29T08:25:24;28.50;99.90
37086;DHT22;23001;45.952;12.676;2023-07-29T08:27:50;28.60;99.90
37086;DHT22;23001;45.952;12.676;2023-07-29T08:30:16;28.60;99.90
37086;DHT22;23001;45.952;12.676;2023-07-29T08:33:03;28.80;99.90
37086;DHT22;23001;45.952;12.676;2023-07-29T08:35:28;28.60;99.90
37086;DHT22;23001;45.952;12.676;2023-07-29T08:37:54;28.40;99.90
37086;DHT22;23001;45.952;12.676;2023-07-29T08:40:27;28.30;99.90
37086;DHT22;23001;45.952;12.676;2023-07-29T08:42:57;28.20;99.90
37086;DHT22;23001;45.952;12.676;2023-07-29T08:45:33;28.20;99.90
37086;DHT22;23001;45.952;12.676;2023-07-29T08:48:08;28.10;99.90
37086;DHT22;23001;45.952;12.676;2023-07-29T08:50:35;28.20;99.90
37086;DHT22;23001;45.952;12.676;2023-07-29T08:53:04;28.40;99.90
37086;DHT22;23001;45.952;12.676;2023-07-29T08:55:31;28.50;99.90
37086;DHT22;23001;45.952;12.676;2023-07-29T08:57:58;28.30;99.90
37086;DHT22;23001;45.952;12.676;2023-07-29T09:00:25;28.20;99.90
37086;DHT22;23001;45.952;12.676;2023-07-29T09:02:54;28.20;99.90
37086;DHT22;23001;45.952;12.676;2023-07-29T09:05:23;28.40;99.90
37086;DHT22;23001;45.952;12.676;2023-07-29T09:07:51;28.40;99.90
37086;DHT22;23001;45.952;12.676;2023-07-29T09:10:23;28.20;99.90
37086;DHT22;23001;45.952;12.676;2023-07-29T09:12:51;28.30;99.90
37086;DHT22;23001;45.952;12.676;2023-07-29T09:15:28;28.40;99.90
37086;DHT22;23001;45.952;12.676;2023-07-29T09:17:56;28.70;99.90
37086;DHT22;23001;45.952;12.676;2023-07-29T09:20:28;28.40;99.90
37086;DHT22;23001;45.952;12.676;2023-07-29T09:22:59;28.50;99.90
37086;DHT22;23001;45.952;12.676;2023-07-29T09:25:29;28.60;99.90
37086;DHT22;23001;45.952;12.676;2023-07-29T09:27:59;28.90;99.90
37086;DHT22;23001;45.952;12.676;2023-07-29T09:30:26;28.50;99.90
37086;DHT22;23001;45.952;12.676;2023-07-29T09:33:00;28.40;99.90
37086;DHT22;23001;45.952;12.676;2023-07-29T09:35:29;28.70;99.90
37086;DHT22;23001;45.952;12.676;2023-07-29T09:38:05;28.40;99.90
37086;DHT22;23001;45.952;12.676;2023-07-29T09:40:39;28.20;99.90
37086;DHT22;23001;45.952;12.676;2023-07-29T09:43:31;28.20;99.90
37086;DHT22;23001;45.952;12.676;2023-07-29T09:46:19;28.10;99.90
37086;DHT22;23001;45.952;12.676;2023-07-29T09:48:52;28.40;99.90
37086;DHT22;23001;45.952;12.676;2023-07-29T09:51:18;28.40;99.90
37086;DHT22;23001;45.952;12.676;2023-07-29T09:53:48;28.20;99.90
37086;DHT22;23001;45.952;12.676;2023-07-29T09:56:15;28.20;99.90
37086;DHT22;23001;45.952;12.676;2023-07-29T09:58:44;28.10;99.90
37086;DHT22;23001;45.952;12.676;2023-07-29T10:01:11;28.40;99.90
37086;DHT22;23001;45.952;12.676;2023-07-29T10:03:37;28.40;99.90
37086;DHT22;23001;45.952;12.676;2023-07-29T10:06:05;28.60;99.90
37086;DHT22;23001;45.952;12.676;2023-07-29T10:08:34;28.80;99.90
37086;DHT22;23001;45.952;12.676;2023-07-29T10:11:12;28.50;99.90
37086;DHT22;23001;45.952;12.676;2023-07-29T10:13:38;28.50;99.90
37086;DHT22;23001;45.952;12.676;2023-07-29T10:16:04;28.60;99.90
37086;DHT22;23001;45.952;12.676;2023-07-29T10:18:33;28.70;99.90
37086;DHT22;23001;45.952;12.676;2023-07-29T10:24:30;29.00;99.90
37086;DHT22;23001;45.952;12.676;2023-07-29T10:27:01;28.90;99.90
37086;DHT22;23001;45.952;12.676;2023-07-29T10:29:36;29.10;99.90
37086;DHT22;23001;45.952;12.676;2023-07-29T10:32:04;29.00;99.90
37086;DHT22;23001;45.952;12.676;2023-07-29T10:34:31;29.10;99.90
37086;DHT22;23001;45.952;12.676;2023-07-29T10:37:00;29.10;99.90
37086;DHT22;23001;45.952;12.676;2023-07-29T10:39:39;28.80;99.90
37086;DHT22;23001;45.952;12.676;2023-07-29T10:42:15;28.60;99.90
37086;DHT22;23001;45.952;12.676;2023-07-29T10:47:40;28.80;99.90
37086;DHT22;23001;45.952;12.676;2023-07-29T10:50:22;28.50;99.90
37086;DHT22;23001;45.952;12.676;2023-07-29T10:52:50;28.20;99.90
37086;DHT22;23001;45.952;12.676;2023-07-29T10:55:35;28.10;99.90
37086;DHT22;23001;45.952;12.676;2023-07-29T10:58:09;28.00;99.90
37086;DHT22;23001;45.952;12.676;2023-07-29T11:00:44;28.30;99.90
37086;DHT22;23001;45.952;12.676;2023-07-29T11:03:11;28.60;99.90
37086;DHT22;23001;45.952;12.676;2023-07-29T11:05:45;29.00;99.90
37086;DHT22;23001;45.952;12.676;2023-07-29T11:08:22;29.30;99.90
37086;DHT22;23001;45.952;12.676;2023-07-29T11:11:07;29.20;99.90
37086;DHT22;23001;45.952;12.676;2023-07-29T11:13:35;29.20;99.90
37086;DHT22;23001;45.952;12.676;2023-07-29T11:16:11;29.00;99.90
37086;DHT22;23001;45.952;12.676;2023-07-29T11:18:44;28.80;99.90
37086;DHT22;23001;45.952;12.676;2023-07-29T11:21:11;28.50;99.90
37086;DHT22;23001;45.952;12.676;2023-07-29T11:23:39;28.50;99.90
37086;DHT22;23001;45.952;12.676;2023-07-29T11:26:05;28.40;99.90
37086;DHT22;23001;45.952;12.676;2023-07-29T11:28:37;28.40;99.90
37086;DHT22;23001;45.952;12.676;2023-07-29T11:31:03;28.80;99.90
37086;DHT22;23001;45.952;12.676;2023-07-29T11:33:28;28.90;99.90
37086;DHT22;23001;45.952;12.676;2023-07-29T11:35:55;28.50;99.90
37086;DHT22;23001;45.952;12.676;2023-07-29T11:38:22;28.30;99.90
37086;DHT22;23001;45.952;12.676;2023-07-29T11:41:00;28.20;99.90
37086;DHT22;23001;45.952;12.676;2023-07-29T11:43:26;28.30;99.90
37086;DHT22;23001;45.952;12.676;2023-07-29T11:45:52;28.30;99.90
37086;DHT22;23001;45.952;12.676;2023-07-29T11:48:26;28.50;99.90
37086;DHT22;23001;45.952;12.676;2023-07-29T11:50:53;28.70;99.90
37086;DHT22;23001;45.952;12.676;2023-07-29T11:53:20;29.10;99.90
37086;DHT22;23001;45.952;12.676;2023-07-29T11:55:51;29.30;99.90
37086;DHT22;23001;45.952;12.676;2023-07-29T11:58:17;29.50;99.90
37086;DHT22;23001;45.952;12.676;2023-07-29T12:00:46;29.70;99.90
37086;DHT22;23001;45.952;12.676;2023-07-29T12:03:12;29.60;99.90
37086;DHT22;23001;45.952;12.676;2023-07-29T12:05:38;29.80;99.90
37086;DHT22;23001;45.952;12.676;2023-07-29T12:08:04;29.80;99.90
37086;DHT22;23001;45.952;12.676;2023-07-29T12:10:30;29.70;99.90
37086;DHT22;23001;45.952;12.676;2023-07-29T12:12:56;29.60;99.90
37086;DHT22;23001;45.952;12.676;2023-07-29T12:15:31;29.70;99.90
37086;DHT22;23001;45.952;12.676;2023-07-29T12:17:57;29.80;99.90
37086;DHT22;23001;45.952;12.676;2023-07-29T12:20:23;29.40;99.90
37086;DHT22;23001;45.952;12.676;2023-07-29T12:22:56;29.10;99.90
37086;DHT22;23001;45.952;12.676;2023-07-29T12:25:23;29.10;99.90
37086;DHT22;23001;45.952;12.676;2023-07-29T12:27:49;29.30;99.90
37086;DHT22;23001;45.952;12.676;2023-07-29T12:30:20;29.30;99.90
37086;DHT22;23001;45.952;12.676;2023-07-29T12:32:46;29.20;99.90
37086;DHT22;23001;45.952;12.676;2023-07-29T12:35:13;29.40;99.90
37086;DHT22;23001;45.952;12.676;2023-07-29T12:37:42;29.70;99.90
37086;DHT22;23001;45.952;12.676;2023-07-29T12:40:31;29.80;99.90
37086;DHT22;23001;45.952;12.676;2023-07-29T12:42:57;29.70;99.90
37086;DHT22;23001;45.952;12.676;2023-07-29T12:45:23;29.60;99.90
37086;DHT22;23001;45.952;12.676;2023-07-29T12:47:52;29.50;99.90
37086;DHT22;23001;45.952;12.676;2023-07-29T12:50:17;29.40;99.90
37086;DHT22;23001;45.952;12.676;2023-07-29T12:52:46;29.40;99.90
37086;DHT22;23001;45.952;12.676;2023-07-29T12:55:17;29.20;99.90
37086;DHT22;23001;45.952;12.676;2023-07-29T12:57:43;29.40;99.90
37086;DHT22;23001;45.952;12.676;2023-07-29T13:00:44;29.60;99.90
37086;DHT22;23001;45.952;12.676;2023-07-29T13:03:10;29.70;99.90
37086;DHT22;23001;45.952;12.676;2023-07-29T13:05:36;29.80;99.90
37086;DHT22;23001;45.952;12.676;2023-07-29T13:08:01;29.90;99.90
37086;DHT22;23001;45.952;12.676;2023-07-29T13:10:30;30.00;99.90
37086;DHT22;23001;45.952;12.676;2023-07-29T13:13:07;29.90;99.90
37086;DHT22;23001;45.952;12.676;2023-07-29T13:15:46;29.90;99.90
37086;DHT22;23001;45.952;12.676;2023-07-29T13:18:12;29.60;99.90
37086;DHT22;23001;45.952;12.676;2023-07-29T13:20:38;29.30;99.90
37086;DHT22;23001;45.952;12.676;2023-07-29T13:23:04;29.20;99.90
37086;DHT22;23001;45.952;12.676;2023-07-29T13:25:30;29.20;99.90
37086;DHT22;23001;45.952;12.676;2023-07-29T13:27:59;29.20;99.90
37086;DHT22;23001;45.952;12.676;2023-07-29T13:30:34;29.00;99.90
37086;DHT22;23001;45.952;12.676;2023-07-29T13:32:59;29.20;99.90
37086;DHT22;23001;45.952;12.676;2023-07-29T13:35:28;29.20;99.90
37086;DHT22;23001;45.952;12.676;2023-07-29T13:37:54;29.00;99.90
37086;DHT22;23001;45.952;12.676;2023-07-29T13:40:20;29.20;99.90
37086;DHT22;23001;45.952;12.676;2023-07-29T13:42:46;29.30;99.90
37086;DHT22;23001;45.952;12.676;2023-07-29T13:45:12;29.10;99.90
37086;DHT22;23001;45.952;12.676;2023-07-29T13:47:38;29.20;99.90
37086;DHT22;23001;45.952;12.676;2023-07-29T13:50:04;29.30;99.90
37086;DHT22;23001;45.952;12.676;2023-07-29T13:52:30;29.60;99.90
37086;DHT22;23001;45.952;12.676;2023-07-29T13:54:56;29.80;99.90
37086;DHT22;23001;45.952;12.676;2023-07-29T13:57:21;29.80;99.90
37086;DHT22;23001;45.952;12.676;2023-07-29T13:59:47;29.70;99.90
37086;DHT22;23001;45.952;12.676;2023-07-29T14:02:16;29.70;99.90
37086;DHT22;23001;45.952;12.676;2023-07-29T14:04:42;29.80;99.90
37086;DHT22;23001;45.952;12.676;2023-07-29T14:07:07;29.80;99.90
37086;DHT22;23001;45.952;12.676;2023-07-29T14:09:34;29.80;99.90
37086;DHT22;23001;45.952;12.676;2023-07-29T14:11:59;29.80;99.90
37086;DHT22;23001;45.952;12.676;2023-07-29T14:14:25;29.80;99.90
37086;DHT22;23001;45.952;12.676;2023-07-29T14:16:51;29.90;99.90
37086;DHT22;23001;45.952;12.676;2023-07-29T14:19:17;30.00;99.90
37086;DHT22;23001;45.952;12.676;2023-07-29T14:21:42;29.90;99.90
37086;DHT22;23001;45.952;12.676;2023-07-29T14:24:08;29.90;99.90
37086;DHT22;23001;45.952;12.676;2023-07-29T14:26:37;29.60;99.90
37086;DHT22;23001;45.952;12.676;2023-07-29T14:29:05;29.50;99.90
37086;DHT22;23001;45.952;12.676;2023-07-29T14:31:40;29.30;99.90
37086;DHT22;23001;45.952;12.676;2023-07-29T14:34:06;29.20;99.90
37086;DHT22;23001;45.952;12.676;2023-07-29T14:36:35;29.10;99.90
37086;DHT22;23001;45.952;12.676;2023-07-29T14:39:00;29.20;99.90
37086;DHT22;23001;45.952;12.676;2023-07-29T14:41:26;29.30;99.90
37086;DHT22;23001;45.952;12.676;2023-07-29T14:43:55;29.40;99.90
37086;DHT22;23001;45.952;12.676;2023-07-29T14:46:26;29.50;99.90
37086;DHT22;23001;45.952;12.676;2023-07-29T14:48:52;29.40;99.90
37086;DHT22;23001;45.952;12.676;2023-07-29T14:51:18;29.40;99.90
37086;DHT22;23001;45.952;12.676;2023-07-29T14:53:44;29.40;99.90
37086;DHT22;23001;45.952;12.676;2023-07-29T14:56:13;29.40;99.90
37086;DHT22;23001;45.952;12.676;2023-07-29T14:58:43;29.40;99.90
37086;DHT22;23001;45.952;12.676;2023-07-29T15:01:12;29.60;99.90
37086;DHT22;23001;45.952;12.676;2023-07-29T15:03:38;29.40;99.90
37086;DHT22;23001;45.952;12.676;2023-07-29T15:06:04;29.40;99.90
37086;DHT22;23001;45.952;12.676;2023-07-29T15:08:29;29.40;99.90
37086;DHT22;23001;45.952;12.676;2023-07-29T15:10:58;29.40;99.90
37086;DHT22;23001;45.952;12.676;2023-07-29T15:13:24;29.50;99.90
37086;DHT22;23001;45.952;12.676;2023-07-29T15:15:59;29.40;99.90
37086;DHT22;23001;45.952;12.676;2023-07-29T15:18:28;29.20;99.90
37086;DHT22;23001;45.952;12.676;2023-07-29T15:20:58;29.20;99.90
37086;DHT22;23001;45.952;12.676;2023-07-29T15:23:28;29.30;99.90
37086;DHT22;23001;45.952;12.676;2023-07-29T15:25:54;29.20;99.90
37086;DHT22;23001;45.952;12.676;2023-07-29T15:28:23;29.20;99.90
37086;DHT22;23001;45.952;12.676;2023-07-29T15:30:57;29.20;99.90
37086;DHT22;23001;45.952;12.676;2023-07-29T15:33:30;29.20;99.90